Terminal Aerodrome Forecast
Issued by NWS Portland, ME

Home | Current Version | Previous Version | Text Only | Print | Product List | Glossary On
Versions: 1 2 3 4 5 6 7 8 9 10 11 12 13 14 15 16 17 18 19 20
000
FTUS41 KGYX 172324
TAFCON
TAF
KCON 172324Z 1800/1824 30007KT P6SM OVC025
     FM180500 30008KT 5SM -SHRASN BR OVC025
     FM181400 30010G23KT P6SM BKN040=

USA.gov is the U.S. government's official web portal to all federal, state and local government web resources and services.